Southeast Texas Regional Airport Beaumont,Port Arthur US
ICAO: KBPT
IATA: BPT
Category: Medium
Scheduled Services: Yes

Elevation: 15 ft
TransAlt. 18000 ft.

Airport Communications:
BEAUMONT APP/DEP:121.3
ATIS:126.3
CLNC DEL:118.3
CTAF:119.5
GND:121.9
MONTGOMERY CO RDO:122.2
BEAUMONT TWR:119.5
UNICOM:122.95

KBPT Zoom In..

If Map Doesn't Load, Click Here

Runways:

(A) RW 12 length 6750 ft width 150 ft
ILS 110.15 / hdg 116

(B) RW 16 length 5070 ft width 150 ft
---- / hdg 161

(C) RW 30 length 6750 ft width 150 ft
---- / hdg 296

(D) RW 34 length 5070 ft width 150 ft
---- / hdg 341

Location; KBPT
Day. 23 / Time. 20.53 Zulu
* Altimeter: 29.83
* Temperature: 31° c. 87.8°f.
* Wind from: 190° Speed 09 kn.
Dewpoint: 24° c.
Visibility: 10 Statute Miles.
Clouds: Few 2300 ft.
Clouds: Scattered 5000 ft.

KBPT 232053Z 19009KT 10SM FEW023 SCT050 31/24 A2983 RMK AO2 SLP102 T03060239 56024


Wind From 190°
Speed 09 kn.

 
 
jpsmedia.com for Web Design worldairports.se 2018   terms of use